createdAt,value
2019-01-19T00:02:32.565Z,1.70
2019-01-19T00:08:08.849Z,1.10
2019-01-19T00:14:09.610Z,1.30
2019-01-19T00:20:04.814Z,1.20
2019-01-19T00:25:43.178Z,1.10
2019-01-19T00:31:18.626Z,1.50
2019-01-19T00:37:01.652Z,1.60
2019-01-19T00:42:33.122Z,1.20
2019-01-19T00:47:45.687Z,1.70
2019-01-19T00:53:14.802Z,1.50
2019-01-19T00:58:35.114Z,1.40
2019-01-19T01:03:50.475Z,1.10
2019-01-19T01:09:42.210Z,1.00
2019-01-19T01:15:46.319Z,1.20
2019-01-19T01:21:15.891Z,1.10
2019-01-19T01:27:00.479Z,1.10
2019-01-19T01:32:15.628Z,0.80
2019-01-19T01:37:40.174Z,0.40
2019-01-19T01:43:28.118Z,0.50
2019-01-19T01:49:11.070Z,0.80
2019-01-19T01:54:59.946Z,0.60
2019-01-19T02:00:32.734Z,0.50
2019-01-19T02:05:43.610Z,0.60
2019-01-19T02:11:12.811Z,0.70
2019-01-19T02:17:01.634Z,0.50
2019-01-19T02:22:16.650Z,0.50
2019-01-19T02:27:58.720Z,0.50
2019-01-19T02:33:16.231Z,0.40
2019-01-19T02:38:53.790Z,0.40
2019-01-19T02:44:25.253Z,0.90
2019-01-19T02:49:52.446Z,0.80
2019-01-19T02:55:45.638Z,0.80
2019-01-19T03:01:11.538Z,1.50
2019-01-19T03:06:58.109Z,2.10
2019-01-19T03:12:46.843Z,2.10
2019-01-19T03:18:34.947Z,1.10
2019-01-19T03:23:57.340Z,1.70
2019-01-19T03:29:42.520Z,2.10
2019-01-19T03:35:19.236Z,2.10
2019-01-19T03:40:50.106Z,1.70
2019-01-19T03:46:30.219Z,1.40
2019-01-19T03:52:09.061Z,0.70
2019-01-19T03:57:40.089Z,0.50
2019-01-19T04:03:17.532Z,0.30
2019-01-19T04:09:08.440Z,0.20
2019-01-19T04:14:40.788Z,0.40
2019-01-19T04:19:59.653Z,0.60
2019-01-19T04:25:27.632Z,0.40
2019-01-19T04:30:32.222Z,0.60
2019-01-19T04:35:40.131Z,0.70
2019-01-19T04:40:44.703Z,0.60
2019-01-19T04:45:52.007Z,0.60
2019-01-19T04:50:56.611Z,0.50
2019-01-19T04:56:01.050Z,0.40
2019-01-19T05:01:05.602Z,0.70
2019-01-19T05:06:12.362Z,0.80
2019-01-19T05:11:18.541Z,1.20
2019-01-19T05:16:23.133Z,1.90
2019-01-19T05:21:28.175Z,2.30
2019-01-19T05:26:32.722Z,2.70
2019-01-19T05:31:37.494Z,2.90
2019-01-19T05:36:41.930Z,3.00
2019-01-19T05:41:46.450Z,3.10
2019-01-19T05:46:51.107Z,3.00
2019-01-19T05:51:56.466Z,2.90
2019-01-19T05:57:04.639Z,2.20
2019-01-19T06:02:09.677Z,1.50
2019-01-19T06:07:14.578Z,1.30
2019-01-19T06:12:19.104Z,1.10
2019-01-19T06:17:23.670Z,0.70
2019-01-19T06:22:28.530Z,0.40
2019-01-19T06:27:36.130Z,0.30
2019-01-19T06:32:41.356Z,0.80
2019-01-19T06:37:46.086Z,1.00
2019-01-19T06:42:50.750Z,1.60
2019-01-19T06:47:55.331Z,2.10
2019-01-19T06:52:59.971Z,1.90
2019-01-19T06:58:04.576Z,2.20
2019-01-19T07:03:09.211Z,1.90
2019-01-19T07:08:13.843Z,2.10
2019-01-19T07:13:18.392Z,2.50
2019-01-19T07:18:23.108Z,2.00
2019-01-19T07:23:27.755Z,2.50
2019-01-19T07:28:32.359Z,2.60
2019-01-19T07:33:36.931Z,2.20
2019-01-19T07:38:41.483Z,2.20
2019-01-19T07:43:45.918Z,2.40
2019-01-19T07:48:50.458Z,2.70
2019-01-19T07:53:54.870Z,2.80
2019-01-19T07:58:59.502Z,2.90
2019-01-19T08:04:04.227Z,3.00
2019-01-19T08:09:10.509Z,3.10
2019-01-19T08:14:15.162Z,3.20
2019-01-19T08:19:19.678Z,3.50
2019-01-19T08:24:24.555Z,4.00
2019-01-19T08:29:29.022Z,4.00
2019-01-19T08:34:37.818Z,4.20
2019-01-19T08:39:46.459Z,4.30
2019-01-19T08:44:51.038Z,4.70
2019-01-19T08:49:55.631Z,4.80
2019-01-19T08:55:00.526Z,6.20
2019-01-19T09:00:08.046Z,8.70
2019-01-19T09:05:12.678Z,10.70
2019-01-19T09:10:17.578Z,11.00
2019-01-19T09:15:22.214Z,12.00
2019-01-19T09:20:26.886Z,10.90
2019-01-19T09:25:31.499Z,9.60
2019-01-19T09:30:36.195Z,10.50
2019-01-19T09:35:40.914Z,11.10
2019-01-19T09:40:45.528Z,11.70
2019-01-19T09:45:53.196Z,11.80
2019-01-19T09:50:58.098Z,10.20
2019-01-19T09:56:02.718Z,9.60
2019-01-19T10:01:07.308Z,12.20
2019-01-19T10:06:11.987Z,14.30
2019-01-19T10:11:16.802Z,10.50
2019-01-19T10:16:21.301Z,12.10
2019-01-19T10:21:26.093Z,14.50
2019-01-19T10:26:30.660Z,13.90
2019-01-19T10:31:35.337Z,15.70
2019-01-19T10:36:39.946Z,15.10
2019-01-19T10:41:44.710Z,11.20
2019-01-19T10:46:49.171Z,11.70
2019-01-19T10:51:59.427Z,11.60
2019-01-19T10:57:03.548Z,13.60
2019-01-19T11:02:08.360Z,11.00
2019-01-19T11:07:12.950Z,9.50
2019-01-19T11:12:17.611Z,8.80
2019-01-19T11:17:22.089Z,11.70
2019-01-19T11:22:26.677Z,10.70
2019-01-19T11:27:31.234Z,12.20
2019-01-19T11:32:35.760Z,15.40
2019-01-19T11:37:40.278Z,13.10
2019-01-19T11:42:44.848Z,14.40
2019-01-19T11:47:49.435Z,15.00
2019-01-19T11:52:54.099Z,11.40
2019-01-19T11:58:01.871Z,10.10
2019-01-19T12:03:06.861Z,10.90
2019-01-19T12:08:19.194Z,12.60
2019-01-19T12:13:18.539Z,10.20
2019-01-19T12:18:23.183Z,10.10
2019-01-19T12:23:27.814Z,10.00
2019-01-19T12:28:32.395Z,8.70
2019-01-19T12:33:37.063Z,10.40
2019-01-19T12:38:41.763Z,11.20
2019-01-19T12:43:46.295Z,10.90
2019-01-19T12:48:50.725Z,10.00
2019-01-19T12:53:55.351Z,10.60
2019-01-19T12:59:00.007Z,11.40
2019-01-19T13:04:23.143Z,9.90
2019-01-19T13:09:30.194Z,10.90
2019-01-19T13:14:38.551Z,10.50
2019-01-19T13:19:52.466Z,8.30
2019-01-19T13:25:25.879Z,9.70
2019-01-19T13:31:14.915Z,7.80
2019-01-19T13:36:52.499Z,9.80
2019-01-19T13:42:30.435Z,9.70
2019-01-19T13:48:05.118Z,8.70
2019-01-19T13:53:40.646Z,8.30
2019-01-19T13:59:13.757Z,6.80
2019-01-19T14:04:52.578Z,7.60
2019-01-19T14:10:35.491Z,7.70
2019-01-19T14:16:19.178Z,7.80
2019-01-19T14:21:45.730Z,7.10
2019-01-19T14:27:26.311Z,7.20
2019-01-19T14:32:49.898Z,7.50
2019-01-19T14:38:24.217Z,8.50
2019-01-19T14:44:07.370Z,6.70
2019-01-19T14:50:05.122Z,6.70
2019-01-19T14:55:44.442Z,5.90
2019-01-19T15:01:11.688Z,5.90
2019-01-19T15:06:56.022Z,6.40
2019-01-19T15:12:35.343Z,5.80
2019-01-19T15:18:24.147Z,6.20
2019-01-19T15:24:27.806Z,5.40
2019-01-19T15:30:10.758Z,5.30
2019-01-19T15:35:48.458Z,4.70
2019-01-19T15:41:46.450Z,4.80
2019-01-19T15:47:37.972Z,5.00
2019-01-19T15:53:32.631Z,4.90
2019-01-19T15:59:15.527Z,4.80
2019-01-19T16:05:07.640Z,5.30
2019-01-19T16:11:06.661Z,5.50
2019-01-19T16:17:14.139Z,5.10
2019-01-19T16:22:59.096Z,4.90
2019-01-19T16:28:38.155Z,4.90
2019-01-19T16:34:12.074Z,4.90
2019-01-19T16:40:06.946Z,5.40
2019-01-19T16:45:47.358Z,5.40
2019-01-19T16:51:34.590Z,5.10
2019-01-19T16:57:08.335Z,4.90
2019-01-19T17:03:03.514Z,5.00
2019-01-19T17:09:10.300Z,4.50
2019-01-19T17:14:58.986Z,4.20
2019-01-19T17:20:18.722Z,4.50
2019-01-19T17:26:06.518Z,4.60
2019-01-19T17:31:38.543Z,4.30
2019-01-19T17:37:16.570Z,4.10
2019-01-19T17:42:55.931Z,4.40
2019-01-19T17:48:14.494Z,4.40
2019-01-19T17:53:54.584Z,4.40
2019-01-19T17:59:26.837Z,4.50
2019-01-19T18:04:50.225Z,4.70
2019-01-19T18:10:29.282Z,4.40
2019-01-19T18:16:18.471Z,3.90
2019-01-19T18:21:55.191Z,3.80
2019-01-19T18:27:19.675Z,3.20
2019-01-19T18:33:07.390Z,3.30
2019-01-19T18:39:00.493Z,3.40
2019-01-19T18:44:40.605Z,3.50
2019-01-19T18:50:29.800Z,3.30
2019-01-19T18:55:49.656Z,3.40
2019-01-19T19:01:03.743Z,3.20
2019-01-19T19:06:22.972Z,3.10
2019-01-19T19:11:52.668Z,2.90
2019-01-19T19:17:36.947Z,3.00
2019-01-19T19:23:12.703Z,3.30
2019-01-19T19:29:10.595Z,3.40
2019-01-19T19:35:11.378Z,3.70
2019-01-19T19:41:06.523Z,3.40
2019-01-19T19:46:55.326Z,3.40
2019-01-19T19:52:04.361Z,3.20
2019-01-19T19:57:09.083Z,3.30
2019-01-19T20:02:13.709Z,3.00
2019-01-19T20:07:18.254Z,2.80
2019-01-19T20:12:22.853Z,2.80
2019-01-19T20:17:27.462Z,2.90
2019-01-19T20:22:32.022Z,3.30
2019-01-19T20:27:36.540Z,3.50
2019-01-19T20:32:41.180Z,3.10
2019-01-19T20:37:45.694Z,2.90
2019-01-19T20:42:50.263Z,2.90
2019-01-19T20:47:56.958Z,3.20
2019-01-19T20:53:01.463Z,3.00
2019-01-19T20:58:05.967Z,3.10
2019-01-19T21:03:10.477Z,3.50
2019-01-19T21:08:15.042Z,3.60
2019-01-19T21:13:19.466Z,3.10
2019-01-19T21:18:24.264Z,3.10
2019-01-19T21:23:28.827Z,3.40
2019-01-19T21:28:33.598Z,3.30
2019-01-19T21:33:41.739Z,3.40
2019-01-19T21:38:50.028Z,3.20
2019-01-19T21:43:54.763Z,2.90
2019-01-19T21:49:00.606Z,2.90
2019-01-19T21:54:05.560Z,3.00
2019-01-19T21:59:10.194Z,2.80
2019-01-19T22:04:14.820Z,2.20
2019-01-19T22:09:19.355Z,2.50
2019-01-19T22:14:24.010Z,2.80
2019-01-19T22:19:28.502Z,2.90
2019-01-19T22:24:33.339Z,3.10
2019-01-19T22:29:37.912Z,3.00
2019-01-19T22:34:42.473Z,3.00
2019-01-19T22:39:47.069Z,2.90
2019-01-19T22:44:51.547Z,2.60
2019-01-19T22:49:56.099Z,2.60
2019-01-19T22:55:00.550Z,2.20
2019-01-19T23:00:28.930Z,2.40
2019-01-19T23:05:33.535Z,2.50
2019-01-19T23:10:38.011Z,2.40
2019-01-19T23:15:42.694Z,2.60
2019-01-19T23:20:49.190Z,2.70
2019-01-19T23:25:53.863Z,2.60
2019-01-19T23:30:58.852Z,2.60
2019-01-19T23:36:03.566Z,2.40
2019-01-19T23:41:09.055Z,1.90
2019-01-19T23:46:14.157Z,1.60
2019-01-19T23:51:18.798Z,1.00
2019-01-19T23:56:23.351Z,0.70
